createdAt,value
2022-10-05T11:02:11.198Z,0
2022-10-05T11:07:16.527Z,0.01
2022-10-05T11:12:22.612Z,0.01
2022-10-05T11:17:28.554Z,0.01
2022-10-05T11:22:34.549Z,0.01
2022-10-05T11:27:40.603Z,0.01
2022-10-05T11:32:46.721Z,0.01
2022-10-05T11:37:52.759Z,0.02
2022-10-05T11:42:58.900Z,0.01
2022-10-05T11:48:04.878Z,0.01
2022-10-05T11:53:10.764Z,0.02
2022-10-05T11:58:16.587Z,0.01
2022-10-05T12:03:22.660Z,0.01
2022-10-05T12:08:28.574Z,0.01
2022-10-05T12:13:34.598Z,0.01
2022-10-05T12:18:40.588Z,0.01
2022-10-05T12:23:46.562Z,0.01
2022-10-05T12:28:52.542Z,0.01
2022-10-05T12:33:58.572Z,2.3
2022-10-05T12:39:04.539Z,0.01
2022-10-05T12:44:10.541Z,0.01
2022-10-05T12:49:16.542Z,0.01
2022-10-05T12:54:22.617Z,0.01
2022-10-05T12:59:28.585Z,0.01
2022-10-05T13:04:34.543Z,0.01
2022-10-05T13:09:40.544Z,0.01
2022-10-05T13:14:46.625Z,0.01
2022-10-05T13:19:52.628Z,0.01
2022-10-05T13:24:58.607Z,0.01
2022-10-05T13:30:04.643Z,0.01
2022-10-05T13:35:10.654Z,0.01
2022-10-05T13:40:16.622Z,0.01
2022-10-05T13:45:22.637Z,0.01
2022-10-05T13:50:28.661Z,0.01
2022-10-05T13:55:34.652Z,0.01
2022-10-05T14:00:40.610Z,0.01
2022-10-05T14:05:46.680Z,0.01
2022-10-05T14:10:52.657Z,0.01
2022-10-05T14:15:58.756Z,0.02
2022-10-05T14:21:04.808Z,0.01
2022-10-05T14:26:09.736Z,0.01
2022-10-05T14:31:15.587Z,0.01
2022-10-05T14:36:21.584Z,0.01
2022-10-05T14:41:27.533Z,0.02
2022-10-05T14:46:33.578Z,0.01
2022-10-05T14:51:39.578Z,0.01
2022-10-05T14:56:45.559Z,0.01
2022-10-05T15:01:51.554Z,0.01
2022-10-05T15:08:07.351Z,0
2022-10-05T15:13:12.597Z,0.02
2022-10-05T15:18:18.795Z,3.14
2022-10-05T15:23:24.666Z,3.27
2022-10-05T15:28:30.570Z,3.34
2022-10-05T15:33:36.536Z,3.39
2022-10-05T15:38:42.185Z,3.42
2022-10-05T15:43:47.824Z,3.44
2022-10-05T15:48:53.738Z,3.47
2022-10-05T15:53:59.674Z,3.48
2022-10-05T15:59:05.558Z,3.49
2022-10-05T16:04:10.925Z,3.51
2022-10-05T16:09:16.555Z,3.52
2022-10-05T16:14:21.873Z,3.53
2022-10-05T16:19:27.540Z,3.54
2022-10-05T16:24:32.925Z,3.56
2022-10-05T16:29:38.565Z,3.57
2022-10-05T16:34:43.873Z,3.59
2022-10-05T16:39:49.566Z,3.6
2022-10-05T16:44:54.885Z,3.61
2022-10-05T16:50:00.550Z,3.63
2022-10-05T16:55:05.918Z,3.64
2022-10-05T17:00:11.541Z,3.66
2022-10-05T17:05:16.903Z,3.66
2022-10-05T17:10:22.544Z,3.67
2022-10-05T17:15:27.901Z,3.68
2022-10-05T17:20:33.645Z,3.69
2022-10-05T17:25:39.620Z,3.7
2022-10-05T17:30:45.168Z,3.71
2022-10-05T17:35:59.868Z,0
2022-10-05T17:41:06.543Z,3.73
2022-10-05T17:46:12.857Z,3.73
2022-10-05T17:51:19.577Z,3.74
2022-10-05T17:56:25.868Z,3.76
2022-10-05T18:01:32.563Z,3.77
2022-10-05T18:06:39.053Z,3.78
2022-10-05T18:11:45.752Z,3.74
2022-10-05T18:16:52.732Z,3.76
2022-10-05T18:21:59.667Z,3.77
2022-10-05T18:27:06.524Z,3.78
2022-10-05T18:32:12.832Z,3.78
2022-10-05T18:37:19.532Z,3.81
2022-10-05T18:42:25.879Z,3.8
2022-10-05T18:47:32.534Z,3.82
2022-10-05T18:52:38.844Z,3.82
2022-10-05T18:57:45.529Z,3.85
2022-10-05T19:02:51.835Z,3.86
2022-10-05T19:07:58.525Z,3.86
2022-10-05T19:13:04.903Z,3.88
2022-10-05T19:18:10.527Z,3.89
2022-10-05T19:23:16.894Z,3.9
2022-10-05T19:28:22.551Z,3.9
2022-10-05T19:33:28.894Z,3.9
2022-10-05T19:38:35.520Z,3.92
2022-10-05T19:43:41.820Z,3.93
2022-10-05T19:48:48.517Z,3.94
2022-10-05T19:53:54.845Z,3.96
2022-10-05T19:59:01.513Z,3.96
2022-10-05T20:04:08.565Z,3.98
2022-10-05T20:09:14.870Z,3.99
2022-10-05T20:14:21.525Z,4.01
